Currently 38°F in Temecula, California, USA
38°F
46°F / 38°F
calm
0.00"
Tuesday, December 1, 2020 7:05 AM PST

Temecula, California Weather Summary
Last 36 Hours

Temperature Winds Hourly Humidity Dewpoint
Time Report Norm Report Norm Max Gusts Precip. Rpt. Norm Rpt. Norm Pressure
1Tue 07:05 AM  37.8°F  44°F  calm  1 mph  3 mph  0.00"  74%  85%  30°F  39°F  30.11"
Tue 07:00 AM  37.7°F  44°F  calm  1 mph  4 mph  0.00"  75%  85%  30°F  39°F  30.11"
3Tue 06:20 AM  37.7°F  44°F  2 mph SW  1 mph  4 mph  ----  74%  85%  30°F  39°F  30.09"
Tue 06:00 AM  37.9°F  44°F  calm  1 mph  none  0.00"  73%  84%  30°F  39°F  30.09"
Tue 05:00 AM  39.2°F  44°F  calm  1 mph  4 mph  0.00"  73%  84%  31°F  40°F  30.10"
Tue 04:00 AM  40.2°F  45°F  calm  1 mph  none  0.00"  70%  83%  31°F  40°F  30.11"
Tue 03:00 AM  41.8°F  46°F  calm  1 mph  none  0.00"  66%  81%  31°F  40°F  30.13"
Tue 02:00 AM  42.8°F  47°F  calm  1 mph  none  0.00"  64%  80%  31°F  41°F  30.14"
Tue 01:00 AM  44.7°F  48°F  calm  1 mph  none  0.00"  61%  79%  31°F  41°F  30.12"
2Tue 12:00 AM  46.3°F  49°F  calm  1 mph  none  0.00"  58%  77%  32°F  41°F  30.12"
Mon 11:00 PM  49.4°F  50°F  calm  1 mph  3 mph  0.00"  50%  75%  31°F  42°F  30.14"
Mon 10:00 PM  52.2°F  51°F  calm  1 mph  9 mph  0.00"  42%  72%  29°F  42°F  30.12"
Mon 09:00 PM  54.1°F  52°F  calm  1 mph  3 mph  0.00"  39%  71%  29°F  43°F  30.11"
Mon 08:00 PM  55.3°F  54°F  calm  2 mph  3 mph  0.00"  43%  68%  32°F  43°F  30.11"
Mon 07:00 PM  59.0°F  56°F  calm  2 mph  3 mph  0.00"  40%  66%  34°F  44°F  30.09"
Mon 06:00 PM  64.8°F  58°F  2 mph E  3 mph  7 mph  0.00"  34%  62%  35°F  44°F  30.08"
Mon 05:00 PM  69.4°F  61°F  5 mph SE  3 mph  7 mph  0.00"  29%  55%  35°F  44°F  30.05"
Mon 04:00 PM  76.0°F  65°F  2 mph SE  4 mph  7 mph  0.00"  21%  48%  32°F  44°F  30.04"
Mon 03:00 PM  78.8°F  68°F  calm  5 mph  12 mph  0.00"  20%  43%  32°F  44°F  30.02"
Mon 02:00 PM  78.2°F  69°F  2 mph E  5 mph  6 mph  0.00"  15%  41%  25°F  43°F  30.03"
Mon 01:00 PM  76.7°F  68°F  calm  5 mph  6 mph  0.00"  17%  42%  26°F  43°F  30.03"
Mon 12:00 PM  74.3°F  66°F  calm  4 mph  5 mph  0.00"  22%  47%  31°F  44°F  30.08"
Mon 11:00 AM  66.7°F  62°F  calm  3 mph  5 mph  0.00"  33%  54%  35°F  44°F  30.13"
Mon 10:00 AM  58.3°F  57°F  2 mph S  2 mph  5 mph  0.00"  42%  65%  35°F  44°F  30.16"
Mon 09:00 AM  50.2°F  50°F  calm  2 mph  4 mph  0.00"  53%  76%  33°F  43°F  30.18"
Mon 08:00 AM  42.4°F  45°F  calm  1 mph  3 mph  0.00"  67%  83%  32°F  41°F  30.18"
Mon 07:00 AM  41.0°F  44°F  calm  1 mph  6 mph  0.00"  72%  85%  32°F  39°F  30.16"
Mon 06:00 AM  41.6°F  44°F  calm  1 mph  3 mph  0.00"  69%  85%  32°F  40°F  30.17"
Mon 05:00 AM  42.0°F  45°F  1 mph E  1 mph  3 mph  0.00"  69%  84%  32°F  40°F  30.15"
Mon 04:00 AM  43.8°F  45°F  calm  1 mph  3 mph  0.00"  63%  83%  32°F  40°F  30.15"
Mon 03:00 AM  45.1°F  46°F  calm  1 mph  4 mph  0.00"  58%  81%  31°F  40°F  30.15"
Mon 02:00 AM  46.9°F  47°F  2 mph E  1 mph  3 mph  0.00"  58%  80%  32°F  41°F  30.16"
Mon 01:00 AM  46.8°F  48°F  calm  1 mph  6 mph  0.00"  54%  79%  30°F  41°F  30.16"
Mon 12:00 AM  47.4°F  49°F  1 mph W  1 mph  5 mph  0.00"  55%  77%  31°F  42°F  30.15"
Sun 11:00 PM  49.3°F  50°F  calm  1 mph  4 mph  0.00"  49%  75%  30°F  42°F  30.17"
Sun 10:00 PM  49.7°F  51°F  calm  1 mph  4 mph  0.00"  52%  73%  32°F  43°F  30.15"
Sun 09:00 PM  51.6°F  53°F  2 mph SE  1 mph  4 mph  0.00"  49%  71%  32°F  43°F  30.13"
Sun 08:00 PM  54.0°F  54°F  calm  2 mph  3 mph  0.00"  45%  69%  32°F  44°F  30.11"

  1. Current weather data. No green row appears if the current weather data is also the high or low for the current day.
  2. High temperature for the current day.
  3. Low temperature for the current day.

The Temecula weather pages are a service of WeatherCurrents. Temecula, California is located in the Temecula Valley, in southwestern Riverside County, along the Interstate 15 highway. The Temecula Valley's rolling hills are home to the Temecula wine country, vineyards, golf courses, a casino resort, and Old Town Temecula.
Copyright ©2020  WeatherCurrents. All rights reserved. - Submit questions and comments - Privacy Policy

This page automatically refreshes every 10 minutes.